Have a Safe July 4th! 

Flight Track Log - Related Links

Times and Time Zones

All times are in EDT time to prevent confusion due to time zone crossing. See the EJA846 flight status page for this flight to view local times or setup timezone preferences in your user account.

Time Position Orientation Groundspeed Altitude Reporting Facility
EDT Latitude Longitude Course Direction KTS MPH feet Rate Location/Type
Thu 07:52:34 AM 29.9650 -81.3486 309° West 175 201 600  Level Jacksonville Center
Thu 07:53:16 AM 29.9903 -81.3842 309° West 191 220 3,300 3,897 Climbing Jacksonville Center
Thu 07:54:11 AM 30.0322 -81.3978 344° North 223 257 6,900 3,290 Climbing Jacksonville Center
Thu 07:55:51 AM 29.9997 -81.2978 111° Southeast 229 264 11,800 2,588 Climbing Jacksonville Center
Thu 07:56:51 AM 29.9117 -81.2750 167° South 257 296 13,800 2,000 Climbing Jacksonville Center
Thu 07:57:51 AM 29.8175 -81.2503 167° South 298 343 15,800 2,000 Climbing Jacksonville Center
Thu 07:58:51 AM 29.7211 -81.2233 166° South 340 391 17,800 2,050 Climbing Jacksonville Center
Thu 07:59:51 AM 29.6206 -81.2011 169° South 362 417 19,900 2,350 Climbing Jacksonville Center
Thu 08:00:51 AM 29.5264 -81.1742 166° South 362 417 22,500 2,300 Climbing Jacksonville Center
Thu 08:01:51 AM 29.4300 -81.1447 165° South 357 411 24,500 2,000 Climbing Jacksonville Center
Thu 08:02:51 AM 29.3253 -81.1181 167° South 362 417 26,500 1,600 Climbing Jacksonville Center
Thu 08:04:51 AM 29.1217 -80.9872 151° Southeast 400 460 29,300 1,433 Climbing Miami Center
Thu 08:05:51 AM 29.0217 -80.9100 146° Southeast 425 489 30,800 1,700 Climbing Miami Center
Thu 08:06:51 AM 28.9250 -80.8614 156° South 420 483 32,700 1,650 Climbing Miami Center
Thu 08:07:51 AM 28.8122 -80.7958 153° Southeast 420 483 34,100 1,150 Climbing Miami Center
Thu 08:08:51 AM 28.7136 -80.7381 153° Southeast 427 491 35,000 950 Climbing Miami Center
Thu 08:09:51 AM 28.6047 -80.6750 153° Southeast 432 497 36,000 1,000 Climbing Miami Center
Thu 08:10:51 AM 28.4967 -80.5744 141° Southeast 447 514 37,000 500 Climbing Miami Center
Thu 08:11:51 AM 28.4033 -80.4722 136° Southeast 459 528 37,000  Level Miami Center
Thu 08:12:51 AM 28.3058 -80.3631 135° Southeast 479 551 37,000  Level Miami Center
Thu 08:13:51 AM 28.2164 -80.2636 136° Southeast 490 564 37,000  Level Miami Center
Thu 08:14:51 AM 28.1208 -80.1525 134° Southeast 490 564 37,000  Level Miami Center
Thu 08:15:51 AM 28.0111 -80.0294 135° Southeast 502 578 37,000  Level Miami Center
Thu 08:16:51 AM 27.9133 -79.9186 135° Southeast 502 578 37,000 -250 Level Miami Center
Thu 08:17:51 AM 27.8153 -79.8081 135° Southeast 502 578 36,500 -500 Descending Miami Center
Thu 08:18:51 AM 27.7275 -79.7119 136° Southeast 502 578 36,000 -250 Descending Miami Center
Thu 08:19:51 AM 27.6294 -79.6017 135° Southeast 502 578 36,000  Level Miami Center
Thu 08:20:51 AM 27.5231 -79.4819 135° Southeast 496 571 36,000  Level Miami Center
Thu 08:21:51 AM 27.4228 -79.3719 136° Southeast 502 578 36,000  Level Miami Center
Thu 08:22:51 AM 27.3242 -79.2647 136° Southeast 502 578 36,000  Level Miami Center
Thu 08:23:51 AM 27.2361 -79.1694 136° Southeast 493 567 36,000  Level Miami Center
Thu 08:24:51 AM 27.1292 -79.0506 135° Southeast 487 560 36,000  Level Miami Center
Thu 08:25:51 AM 27.0347 -78.9439 135° Southeast 487 560 36,000  Level Miami Center
Thu 08:26:51 AM 26.9339 -78.8325 135° Southeast 487 560 36,000 -550 Level Miami Center
Thu 08:27:51 AM 26.8414 -78.7286 135° Southeast 492 566 34,900 -1,500 Descending Miami Center
Thu 08:28:51 AM 26.7444 -78.6317 138° Southeast 475 547 33,000 -1,950 Descending Miami Center
Thu 08:29:51 AM 26.6517 -78.5278 135° Southeast 470 541 31,000 -2,000 Descending Miami Center
Thu 08:30:51 AM 26.5525 -78.4267 138° Southeast 475 547 29,000 -2,000 Descending Miami Center
Thu 08:31:51 AM 26.4617 -78.3208 134° Southeast 475 547 27,000 -2,000 Descending Miami Center
Thu 08:32:51 AM 26.3706 -78.2247 137° Southeast 464 534 25,000 -2,000 Descending Miami Center
Thu 08:33:51 AM 26.2817 -78.1286 136° Southeast 452 520 23,000 -2,000 Descending Miami Center
Thu 08:34:51 AM 26.1989 -78.0328 134° Southeast 438 504 21,000 -2,050 Descending Miami Center
Thu 08:35:51 AM 26.1158 -77.9486 138° Southeast 418 481 18,900 -1,950 Descending Miami Center
Thu 08:36:51 AM 26.0372 -77.8625 135° Southeast 411 473 17,100 -1,900 Descending Miami Center
Thu 08:37:51 AM 25.9456 -77.8108 153° Southeast 371 427 15,100 -2,000 Descending Miami Center
Thu 08:38:51 AM 25.8517 -77.7731 160° South 365 420 13,100 -1,050 Descending Miami Center
Thu 08:39:51 AM 25.7578 -77.7378 161° South 360 414 13,000 -50 Descending Miami Center
Thu 08:40:51 AM 25.6639 -77.7094 165° South 355 409 13,000 -650 Level Miami Center
Thu 08:41:51 AM 25.5742 -77.6836 165° South 345 397 11,700 -1,500 Descending Miami Center
Thu 08:42:51 AM 25.4950 -77.6600 165° South 326 375 10,000 -1,700 Descending Miami Center
Thu 08:44:00 AM 25.3811 -77.6069 159° South  Level FlightAware Approximate
Thu 08:51:00 AM 25.0390 -77.4662 156° South  Level Estimated

Login

Don't have an account? Register now (free) for customized features, flight alerts, and more!